»·PEaware :: VM13 KRIV-KNZY

VM13 :: KRIV-KNZY

FLIGHT INFORMATION

Flight Status: Arrived
Operator: Unknown
More flights by this operator :: More flights under this callsign
Pilot: Damien O. (2415)
Aircraft: BELL/BOEING OSPREY
(V22)
More flights by this aircraft type
Origin: KRIV March ARB
United States
Destination: KNZY North Island NAS
United States
More flights between these airports :: More routes between these airports
Route: PDZ V186 HAILE V66 MZB
File this flight plan on PilotEdge
Remarks:
Altitude:
(Current/Filed)
9,000ft
Speed:
(Current/Filed)
200kts
Departed: 14-Jan-16 07:30 PM
Arrived: 14-Jan-16 08:08 PM
Distance/Time
Traveled:
1nm/0:38
Distance/Time
To Go:
Arrived

Flight Plot

Page will automatically refresh every two minutes.


Map Options




Map Legend


Flown Route
Filed Route
Departure Airport
Arrival Airport
Navaid (VOR, NDB)
Fix

Horizontal Profiles

Position Reports

Time Latitude Longitude Heading Altitude Ground
Speed
14-Jan-16 19:15 33.870502 -117.246071 313 1543ft 0kts
14-Jan-16 19:16 33.870512 -117.246083 313 1543ft 0kts
14-Jan-16 19:17 33.870519 -117.246092 314 1543ft 0kts
14-Jan-16 19:18 33.870526 -117.246101 315 1543ft 0kts
14-Jan-16 19:19 33.870526 -117.246101 315 1543ft 0kts
14-Jan-16 19:20 33.870527 -117.246102 315 1543ft 0kts
14-Jan-16 19:21 33.870528 -117.246103 315 1543ft 0kts
14-Jan-16 19:22 33.868241 -117.246265 176 1543ft 24kts
14-Jan-16 19:23 33.865495 -117.247689 270 1543ft 0kts
14-Jan-16 19:24 33.865495 -117.247692 270 1543ft 0kts
14-Jan-16 19:25 33.879494 -117.258403 330 1865ft 140kts
14-Jan-16 19:26 33.933485 -117.292526 332 3056ft 260kts
14-Jan-16 19:27 33.996244 -117.334265 319 4140ft 259kts
14-Jan-16 19:28 33.997130 -117.406574 213 5266ft 242kts
14-Jan-16 19:29 33.936554 -117.442022 229 6373ft 253kts
14-Jan-16 19:30 33.903998 -117.510514 173 7579ft 252kts
14-Jan-16 19:31 33.832447 -117.463140 147 8643ft 313kts
14-Jan-16 19:32 33.761892 -117.400808 146 8997ft 311kts
14-Jan-16 19:33 33.691360 -117.340167 147 9000ft 311kts
14-Jan-16 19:34 33.620169 -117.280572 148 9000ft 311kts
14-Jan-16 19:35 33.549094 -117.221545 148 9000ft 311kts
14-Jan-16 19:36 33.475153 -117.168296 161 9001ft 307kts
14-Jan-16 19:37 33.393844 -117.142898 173 8992ft 264kts
14-Jan-16 19:38 33.338864 -117.131365 177 8978ft 153kts
14-Jan-16 19:39 33.293308 -117.122564 176 9000ft 177kts
14-Jan-16 19:40 33.246102 -117.112498 176 8888ft 173kts
14-Jan-16 19:41 33.199061 -117.102534 176 8813ft 167kts
14-Jan-16 19:42 33.156917 -117.077243 152 8814ft 173kts
14-Jan-16 19:43 33.116667 -117.045597 152 8814ft 173kts
14-Jan-16 19:44 33.076254 -117.013833 152 8814ft 173kts
14-Jan-16 19:45 33.035866 -116.982102 152 8814ft 173kts
14-Jan-16 19:46 32.995474 -116.950384 152 8814ft 173kts
14-Jan-16 19:47 32.952541 -116.933925 191 8514ft 158kts
14-Jan-16 19:48 32.908065 -116.939034 192 7715ft 161kts
14-Jan-16 19:49 32.862856 -116.945677 191 6913ft 164kts
14-Jan-16 19:50 32.817494 -116.954344 191 6112ft 164kts
14-Jan-16 19:51 32.772851 -116.964728 192 5311ft 161kts
14-Jan-16 19:52 32.732318 -116.982366 220 4513ft 154kts
14-Jan-16 19:53 32.700930 -117.016282 222 3837ft 145kts
14-Jan-16 19:54 32.672903 -117.046803 222 3605ft 137kts
14-Jan-16 19:55 32.644228 -117.078003 222 3111ft 140kts
14-Jan-16 19:56 32.619672 -117.112591 249 2610ft 137kts
14-Jan-16 19:57 32.608031 -117.155966 252 2116ft 137kts
14-Jan-16 19:58 32.612777 -117.198750 292 1618ft 134kts
14-Jan-16 19:59 32.622899 -117.228069 292 1315ft 84kts
14-Jan-16 20:00 32.637188 -117.237000 20 1198ft 74kts
14-Jan-16 20:01 32.658750 -117.225842 21 927ft 80kts
14-Jan-16 20:02 32.678301 -117.219799 343 261ft 76kts
14-Jan-16 20:03 32.697702 -117.215614 27 34ft 30kts
14-Jan-16 20:04 32.699781 -117.213072 118 34ft 12kts
14-Jan-16 20:05 32.697171 -117.207981 121 34ft 16kts
14-Jan-16 20:06 32.695876 -117.203393 21 34ft 0kts
14-Jan-16 20:07 33.870495 -117.246061 312 1543ft 0kts

Navigation Log

Ident Type
Flight plan parsing failed, navigation log unavailable